map of SJJ home
SJJ - Airport
Location
City:  Sarajevo, Bosnia and Herzegovina
Name:Sarajevo International Airport
ICAO:LQSA
IATA:SJJ

Details
Type:Airport (Aerodrome, Airfield)
Use:Public/Civil, International (customs port of entry)
Latitude:4349'28"N (43.824583)
Longitude:1819'53"E (18.331467)
Datum:WGS 1984
Elevation:1708 ft (521 m)
Variation:4.49E (WMM2015v2 magnetic declination)
0.13 annual change
Runways:1
Longest:8666 × 150 ft (2641 × 45.5 m), paved

Time
Time Zone:UTC+1 (DST+2)
Local Time:

Weather
METAR:LQSA 041400Z 29006KT 2000 SN FEW007 BKN015 BKN055 00/00 Q1026 NOSIG
TAF:LQSA 040500Z 0406/0506 32005KT 5000 BR FEW015 BKN050 TX02/0413Z TNM02/0506Z PROB40
TEMPO 0406/0408 1000
TEMPO 0408/0420 1400 SN BKN004 OVC020 PROB40
TEMPO 0420/0506 2000 -SN BKN006

Related Locations
Nearby:
Farthest:CHT: 11702 mi / 18833 km
Waitangi [Tuuta], CIT, NZ

Find:

   beyond  
but within

Other Information
Maps:
NOTAMs:
Links:
Sources:

  
  • flag of Bosnia and Herzegovina
  

Sectional Chart

Flight Planning
at skyvector.com

Satellite Image

Google Maps Satellite view

 

Copyright © 2004-2019 Karl L. Swartz. All rights reserved.
The Great Circle Mapper name and logo are trademarks of the Great Circle Mapper.
All other trademarks mentioned herein belong to their respective owners.
Please see credits for attibutions and further copyright information.

  Follow gcmap on Facebook Follow gcmap on Twitter GCmap on LinkedIn

hCard Microformat

Geo Microformat